sensor_id;sensor_type;location;lat;lon;timestamp;P1;durP1;ratioP1;P2;durP2;ratioP2
53313;SDS011;39202;51.468;7.146;2022-08-01T00:02:47;1.20;;;1.20;;
53313;SDS011;39202;51.468;7.146;2022-08-01T00:07:49;1.40;;;1.30;;
53313;SDS011;39202;51.468;7.146;2022-08-01T00:12:51;1.30;;;1.30;;
53313;SDS011;39202;51.468;7.146;2022-08-01T00:17:54;1.38;;;1.20;;
53313;SDS011;39202;51.468;7.146;2022-08-01T00:22:55;1.20;;;1.20;;
53313;SDS011;39202;51.468;7.146;2022-08-01T00:27:57;1.42;;;1.33;;
53313;SDS011;39202;51.468;7.146;2022-08-01T00:33:00;1.63;;;1.52;;
53313;SDS011;39202;51.468;7.146;2022-08-01T00:38:02;1.00;;;1.00;;
53313;SDS011;39202;51.468;7.146;2022-08-01T00:43:03;1.20;;;1.20;;
53313;SDS011;39202;51.468;7.146;2022-08-01T00:48:06;1.30;;;1.20;;
53313;SDS011;39202;51.468;7.146;2022-08-01T00:53:08;1.20;;;1.20;;
53313;SDS011;39202;51.468;7.146;2022-08-01T00:58:10;1.20;;;1.20;;
53313;SDS011;39202;51.468;7.146;2022-08-01T01:03:14;1.50;;;1.40;;
53313;SDS011;39202;51.468;7.146;2022-08-01T01:08:16;1.20;;;1.17;;
53313;SDS011;39202;51.468;7.146;2022-08-01T01:13:24;1.20;;;1.20;;
53313;SDS011;39202;51.468;7.146;2022-08-01T01:18:34;1.17;;;1.17;;
53313;SDS011;39202;51.468;7.146;2022-08-01T01:23:46;1.60;;;1.50;;
53313;SDS011;39202;51.468;7.146;2022-08-01T01:29:05;1.50;;;1.40;;
53313;SDS011;39202;51.468;7.146;2022-08-01T01:34:11;1.15;;;1.08;;
53313;SDS011;39202;51.468;7.146;2022-08-01T01:39:15;1.63;;;1.50;;
53313;SDS011;39202;51.468;7.146;2022-08-01T01:44:19;1.23;;;1.23;;
53313;SDS011;39202;51.468;7.146;2022-08-01T01:49:21;1.45;;;1.35;;
53313;SDS011;39202;51.468;7.146;2022-08-01T01:54:27;1.30;;;1.30;;
53313;SDS011;39202;51.468;7.146;2022-08-01T01:59:33;1.30;;;1.30;;
53313;SDS011;39202;51.468;7.146;2022-08-01T02:04:37;1.23;;;1.23;;
53313;SDS011;39202;51.468;7.146;2022-08-01T02:09:42;1.33;;;1.23;;
53313;SDS011;39202;51.468;7.146;2022-08-01T02:14:46;1.30;;;1.30;;
53313;SDS011;39202;51.468;7.146;2022-08-01T02:19:50;1.40;;;1.40;;
53313;SDS011;39202;51.468;7.146;2022-08-01T02:24:53;1.30;;;1.30;;
53313;SDS011;39202;51.468;7.146;2022-08-01T02:30:03;1.40;;;1.40;;
53313;SDS011;39202;51.468;7.146;2022-08-01T02:35:07;1.38;;;1.38;;
53313;SDS011;39202;51.468;7.146;2022-08-01T02:40:14;1.40;;;1.40;;
53313;SDS011;39202;51.468;7.146;2022-08-01T02:45:20;1.67;;;1.58;;
53313;SDS011;39202;51.468;7.146;2022-08-01T02:50:26;1.42;;;1.40;;
53313;SDS011;39202;51.468;7.146;2022-08-01T02:55:29;1.65;;;1.55;;
53313;SDS011;39202;51.468;7.146;2022-08-01T03:00:36;1.52;;;1.42;;
53313;SDS011;39202;51.468;7.146;2022-08-01T03:05:40;1.60;;;1.50;;
53313;SDS011;39202;51.468;7.146;2022-08-01T03:10:43;1.48;;;1.48;;
53313;SDS011;39202;51.468;7.146;2022-08-01T03:15:48;1.48;;;1.48;;
53313;SDS011;39202;51.468;7.146;2022-08-01T03:20:51;1.58;;;1.58;;
53313;SDS011;39202;51.468;7.146;2022-08-01T03:25:55;1.50;;;1.50;;
53313;SDS011;39202;51.468;7.146;2022-08-01T03:30:59;1.40;;;1.40;;
53313;SDS011;39202;51.468;7.146;2022-08-01T03:36:03;1.55;;;1.50;;
53313;SDS011;39202;51.468;7.146;2022-08-01T03:41:09;1.75;;;1.70;;
53313;SDS011;39202;51.468;7.146;2022-08-01T03:46:16;1.70;;;1.60;;
53313;SDS011;39202;51.468;7.146;2022-08-01T03:51:21;1.80;;;1.70;;
53313;SDS011;39202;51.468;7.146;2022-08-01T03:56:24;1.75;;;1.70;;
53313;SDS011;39202;51.468;7.146;2022-08-01T04:01:28;1.80;;;1.70;;
53313;SDS011;39202;51.468;7.146;2022-08-01T04:06:33;2.00;;;1.90;;
53313;SDS011;39202;51.468;7.146;2022-08-01T04:11:38;1.45;;;1.45;;
53313;SDS011;39202;51.468;7.146;2022-08-01T04:16:42;1.65;;;1.60;;
53313;SDS011;39202;51.468;7.146;2022-08-01T04:21:43;1.50;;;1.48;;
53313;SDS011;39202;51.468;7.146;2022-08-01T04:26:46;1.70;;;1.70;;
53313;SDS011;39202;51.468;7.146;2022-08-01T04:31:51;1.50;;;1.50;;
53313;SDS011;39202;51.468;7.146;2022-08-01T04:36:55;1.60;;;1.60;;
53313;SDS011;39202;51.468;7.146;2022-08-01T04:41:58;2.03;;;1.92;;
53313;SDS011;39202;51.468;7.146;2022-08-01T04:47:05;1.77;;;1.67;;
53313;SDS011;39202;51.468;7.146;2022-08-01T04:52:07;1.60;;;1.52;;
53313;SDS011;39202;51.468;7.146;2022-08-01T04:57:09;1.40;;;1.40;;
53313;SDS011;39202;51.468;7.146;2022-08-01T05:02:14;1.80;;;1.70;;
53313;SDS011;39202;51.468;7.146;2022-08-01T05:07:16;1.58;;;1.52;;
53313;SDS011;39202;51.468;7.146;2022-08-01T05:12:18;1.88;;;1.80;;
53313;SDS011;39202;51.468;7.146;2022-08-01T05:17:22;1.73;;;1.65;;
53313;SDS011;39202;51.468;7.146;2022-08-01T05:22:23;1.50;;;1.50;;
53313;SDS011;39202;51.468;7.146;2022-08-01T05:27:25;1.70;;;1.70;;
53313;SDS011;39202;51.468;7.146;2022-08-01T05:32:28;1.70;;;1.70;;
53313;SDS011;39202;51.468;7.146;2022-08-01T05:37:31;1.60;;;1.60;;
53313;SDS011;39202;51.468;7.146;2022-08-01T05:42:33;1.90;;;1.80;;
53313;SDS011;39202;51.468;7.146;2022-08-01T05:47:36;1.70;;;1.65;;
53313;SDS011;39202;51.468;7.146;2022-08-01T05:52:38;1.83;;;1.73;;
53313;SDS011;39202;51.468;7.146;2022-08-01T05:57:40;1.60;;;1.60;;
53313;SDS011;39202;51.468;7.146;2022-08-01T06:02:43;1.70;;;1.70;;
53313;SDS011;39202;51.468;7.146;2022-08-01T06:07:44;1.80;;;1.70;;
53313;SDS011;39202;51.468;7.146;2022-08-01T06:12:46;1.80;;;1.70;;
53313;SDS011;39202;51.468;7.146;2022-08-01T06:17:49;2.20;;;2.00;;
53313;SDS011;39202;51.468;7.146;2022-08-01T06:22:51;2.47;;;2.28;;
53313;SDS011;39202;51.468;7.146;2022-08-01T06:27:52;2.55;;;2.35;;
53313;SDS011;39202;51.468;7.146;2022-08-01T06:32:55;2.75;;;2.55;;
53313;SDS011;39202;51.468;7.146;2022-08-01T06:37:58;2.60;;;2.40;;
53313;SDS011;39202;51.468;7.146;2022-08-01T06:43:00;2.40;;;2.25;;
53313;SDS011;39202;51.468;7.146;2022-08-01T06:48:03;2.30;;;2.20;;
53313;SDS011;39202;51.468;7.146;2022-08-01T06:53:05;2.80;;;2.60;;
53313;SDS011;39202;51.468;7.146;2022-08-01T06:58:07;2.90;;;2.63;;
53313;SDS011;39202;51.468;7.146;2022-08-01T07:03:10;2.80;;;2.55;;
53313;SDS011;39202;51.468;7.146;2022-08-01T07:08:12;2.28;;;2.08;;
53313;SDS011;39202;51.468;7.146;2022-08-01T07:13:13;2.00;;;1.90;;
53313;SDS011;39202;51.468;7.146;2022-08-01T07:18:21;1.95;;;1.85;;
53313;SDS011;39202;51.468;7.146;2022-08-01T07:23:23;2.30;;;1.98;;
53313;SDS011;39202;51.468;7.146;2022-08-01T07:28:25;1.83;;;1.73;;
53313;SDS011;39202;51.468;7.146;2022-08-01T07:33:28;1.75;;;1.65;;
53313;SDS011;39202;51.468;7.146;2022-08-01T07:38:30;1.88;;;1.77;;
53313;SDS011;39202;51.468;7.146;2022-08-01T07:43:31;1.80;;;1.60;;
53313;SDS011;39202;51.468;7.146;2022-08-01T07:48:37;1.67;;;1.58;;
53313;SDS011;39202;51.468;7.146;2022-08-01T07:53:38;1.67;;;1.58;;
53313;SDS011;39202;51.468;7.146;2022-08-01T07:58:40;2.13;;;1.52;;
53313;SDS011;39202;51.468;7.146;2022-08-01T08:03:43;2.90;;;1.38;;
53313;SDS011;39202;51.468;7.146;2022-08-01T08:08:45;3.90;;;1.20;;
53313;SDS011;39202;51.468;7.146;2022-08-01T08:13:47;1.50;;;1.40;;
53313;SDS011;39202;51.468;7.146;2022-08-01T08:18:50;1.40;;;1.30;;
53313;SDS011;39202;51.468;7.146;2022-08-01T08:23:51;1.70;;;1.58;;
53313;SDS011;39202;51.468;7.146;2022-08-01T08:29:10;1.40;;;1.30;;
53313;SDS011;39202;51.468;7.146;2022-08-01T08:34:14;0.90;;;0.90;;
53313;SDS011;39202;51.468;7.146;2022-08-01T08:39:15;1.15;;;1.15;;
53313;SDS011;39202;51.468;7.146;2022-08-01T08:44:18;0.90;;;0.90;;
53313;SDS011;39202;51.468;7.146;2022-08-01T08:49:23;1.10;;;1.10;;
53313;SDS011;39202;51.468;7.146;2022-08-01T08:54:27;1.17;;;1.15;;
53313;SDS011;39202;51.468;7.146;2022-08-01T08:59:30;1.10;;;1.10;;
53313;SDS011;39202;51.468;7.146;2022-08-01T09:04:34;1.13;;;1.13;;
53313;SDS011;39202;51.468;7.146;2022-08-01T09:09:37;1.23;;;1.23;;
53313;SDS011;39202;51.468;7.146;2022-08-01T09:14:43;1.40;;;1.30;;
53313;SDS011;39202;51.468;7.146;2022-08-01T09:19:48;1.20;;;1.20;;
53313;SDS011;39202;51.468;7.146;2022-08-01T09:24:58;1.10;;;1.10;;
53313;SDS011;39202;51.468;7.146;2022-08-01T09:30:07;1.08;;;1.08;;
53313;SDS011;39202;51.468;7.146;2022-08-01T09:40:43;0.95;;;0.95;;
53313;SDS011;39202;51.468;7.146;2022-08-01T09:45:46;0.90;;;0.90;;
53313;SDS011;39202;51.468;7.146;2022-08-01T09:50:50;0.95;;;0.95;;
53313;SDS011;39202;51.468;7.146;2022-08-01T09:55:53;0.98;;;0.98;;
53313;SDS011;39202;51.468;7.146;2022-08-01T10:00:58;1.80;;;0.90;;
53313;SDS011;39202;51.468;7.146;2022-08-01T10:06:09;0.90;;;0.90;;
53313;SDS011;39202;51.468;7.146;2022-08-01T10:11:20;0.80;;;0.80;;
53313;SDS011;39202;51.468;7.146;2022-08-01T10:16:23;1.05;;;1.05;;
53313;SDS011;39202;51.468;7.146;2022-08-01T10:21:27;0.88;;;0.88;;
53313;SDS011;39202;51.468;7.146;2022-08-01T10:26:32;0.90;;;0.90;;
53313;SDS011;39202;51.468;7.146;2022-08-01T10:31:34;1.00;;;1.00;;
53313;SDS011;39202;51.468;7.146;2022-08-01T10:36:39;1.00;;;1.00;;
53313;SDS011;39202;51.468;7.146;2022-08-01T10:41:42;0.80;;;0.80;;
53313;SDS011;39202;51.468;7.146;2022-08-01T10:46:45;1.98;;;1.13;;
53313;SDS011;39202;51.468;7.146;2022-08-01T10:51:52;1.00;;;1.00;;
53313;SDS011;39202;51.468;7.146;2022-08-01T10:56:54;0.82;;;0.82;;
53313;SDS011;39202;51.468;7.146;2022-08-01T11:02:01;0.70;;;0.70;;
53313;SDS011;39202;51.468;7.146;2022-08-01T11:07:06;1.60;;;0.70;;
53313;SDS011;39202;51.468;7.146;2022-08-01T11:12:09;0.50;;;0.50;;
53313;SDS011;39202;51.468;7.146;2022-08-01T11:17:31;0.60;;;0.60;;
53313;SDS011;39202;51.468;7.146;2022-08-01T11:28:26;1.27;;;0.52;;
53313;SDS011;39202;51.468;7.146;2022-08-01T11:44:17;0.60;;;0.60;;
53313;SDS011;39202;51.468;7.146;2022-08-01T11:49:23;0.50;;;0.50;;
53313;SDS011;39202;51.468;7.146;2022-08-01T11:54:26;0.50;;;0.50;;
53313;SDS011;39202;51.468;7.146;2022-08-01T11:59:36;0.52;;;0.52;;
53313;SDS011;39202;51.468;7.146;2022-08-01T12:04:50;0.40;;;0.40;;
53313;SDS011;39202;51.468;7.146;2022-08-01T12:09:58;0.90;;;0.50;;
53313;SDS011;39202;51.468;7.146;2022-08-01T12:15:03;0.43;;;0.43;;
53313;SDS011;39202;51.468;7.146;2022-08-01T12:20:07;0.50;;;0.50;;
53313;SDS011;39202;51.468;7.146;2022-08-01T12:25:11;0.95;;;0.60;;
53313;SDS011;39202;51.468;7.146;2022-08-01T12:30:15;0.60;;;0.60;;
53313;SDS011;39202;51.468;7.146;2022-08-01T12:35:19;0.60;;;0.60;;
53313;SDS011;39202;51.468;7.146;2022-08-01T12:40:23;0.60;;;0.60;;
53313;SDS011;39202;51.468;7.146;2022-08-01T12:45:28;0.60;;;0.60;;
53313;SDS011;39202;51.468;7.146;2022-08-01T12:50:34;0.73;;;0.70;;
53313;SDS011;39202;51.468;7.146;2022-08-01T12:55:43;0.60;;;0.60;;
53313;SDS011;39202;51.468;7.146;2022-08-01T13:00:49;0.60;;;0.60;;
53313;SDS011;39202;51.468;7.146;2022-08-01T13:06:09;0.50;;;0.50;;
53313;SDS011;39202;51.468;7.146;2022-08-01T13:11:13;0.60;;;0.60;;
53313;SDS011;39202;51.468;7.146;2022-08-01T13:16:18;0.95;;;0.50;;
53313;SDS011;39202;51.468;7.146;2022-08-01T13:21:22;0.95;;;0.60;;
53313;SDS011;39202;51.468;7.146;2022-08-01T13:26:37;0.70;;;0.70;;
53313;SDS011;39202;51.468;7.146;2022-08-01T13:31:41;1.10;;;0.80;;
53313;SDS011;39202;51.468;7.146;2022-08-01T13:36:43;0.60;;;0.60;;
53313;SDS011;39202;51.468;7.146;2022-08-01T13:41:45;0.82;;;0.82;;
53313;SDS011;39202;51.468;7.146;2022-08-01T13:46:48;0.70;;;0.70;;
53313;SDS011;39202;51.468;7.146;2022-08-01T13:51:50;0.77;;;0.77;;
53313;SDS011;39202;51.468;7.146;2022-08-01T13:56:52;0.70;;;0.70;;
53313;SDS011;39202;51.468;7.146;2022-08-01T14:01:55;0.70;;;0.70;;
53313;SDS011;39202;51.468;7.146;2022-08-01T14:06:57;0.70;;;0.70;;
53313;SDS011;39202;51.468;7.146;2022-08-01T14:11:59;0.80;;;0.80;;
53313;SDS011;39202;51.468;7.146;2022-08-01T14:17:02;0.60;;;0.60;;
53313;SDS011;39202;51.468;7.146;2022-08-01T14:22:04;0.80;;;0.80;;
53313;SDS011;39202;51.468;7.146;2022-08-01T14:27:06;0.70;;;0.70;;
53313;SDS011;39202;51.468;7.146;2022-08-01T14:32:09;0.75;;;0.70;;
53313;SDS011;39202;51.468;7.146;2022-08-01T14:37:10;0.90;;;0.70;;
53313;SDS011;39202;51.468;7.146;2022-08-01T14:42:12;0.73;;;0.70;;
53313;SDS011;39202;51.468;7.146;2022-08-01T14:47:15;1.30;;;0.65;;
53313;SDS011;39202;51.468;7.146;2022-08-01T14:52:17;1.85;;;0.90;;
53313;SDS011;39202;51.468;7.146;2022-08-01T14:57:19;0.98;;;0.93;;
53313;SDS011;39202;51.468;7.146;2022-08-01T15:02:22;1.00;;;1.00;;
53313;SDS011;39202;51.468;7.146;2022-08-01T15:07:24;0.80;;;0.80;;
53313;SDS011;39202;51.468;7.146;2022-08-01T15:12:26;0.80;;;0.80;;
53313;SDS011;39202;51.468;7.146;2022-08-01T15:17:29;0.80;;;0.80;;
53313;SDS011;39202;51.468;7.146;2022-08-01T15:22:32;0.90;;;0.90;;
53313;SDS011;39202;51.468;7.146;2022-08-01T15:27:34;2.22;;;0.90;;
53313;SDS011;39202;51.468;7.146;2022-08-01T15:32:37;1.23;;;1.00;;
53313;SDS011;39202;51.468;7.146;2022-08-01T15:37:39;1.00;;;1.00;;
53313;SDS011;39202;51.468;7.146;2022-08-01T15:42:42;0.88;;;0.88;;
53313;SDS011;39202;51.468;7.146;2022-08-01T15:47:45;0.98;;;0.98;;
53313;SDS011;39202;51.468;7.146;2022-08-01T15:52:46;1.10;;;1.10;;
53313;SDS011;39202;51.468;7.146;2022-08-01T15:57:48;0.90;;;0.90;;
53313;SDS011;39202;51.468;7.146;2022-08-01T16:02:51;0.80;;;0.80;;
53313;SDS011;39202;51.468;7.146;2022-08-01T16:07:54;0.90;;;0.90;;
53313;SDS011;39202;51.468;7.146;2022-08-01T16:12:56;1.00;;;1.00;;
53313;SDS011;39202;51.468;7.146;2022-08-01T16:17:59;0.90;;;0.90;;
53313;SDS011;39202;51.468;7.146;2022-08-01T16:23:01;0.95;;;0.90;;
53313;SDS011;39202;51.468;7.146;2022-08-01T16:28:03;1.30;;;1.10;;
53313;SDS011;39202;51.468;7.146;2022-08-01T16:33:06;1.00;;;1.00;;
53313;SDS011;39202;51.468;7.146;2022-08-01T16:38:08;1.15;;;1.05;;
53313;SDS011;39202;51.468;7.146;2022-08-01T16:43:10;1.25;;;0.98;;
53313;SDS011;39202;51.468;7.146;2022-08-01T16:48:14;1.08;;;1.08;;
53313;SDS011;39202;51.468;7.146;2022-08-01T16:53:17;1.00;;;1.00;;
53313;SDS011;39202;51.468;7.146;2022-08-01T16:58:21;1.17;;;1.10;;
53313;SDS011;39202;51.468;7.146;2022-08-01T17:03:24;0.98;;;0.98;;
53313;SDS011;39202;51.468;7.146;2022-08-01T17:08:26;1.60;;;0.85;;
53313;SDS011;39202;51.468;7.146;2022-08-01T17:13:27;0.90;;;0.90;;
53313;SDS011;39202;51.468;7.146;2022-08-01T17:18:30;0.90;;;0.90;;
53313;SDS011;39202;51.468;7.146;2022-08-01T17:23:32;0.90;;;0.90;;
53313;SDS011;39202;51.468;7.146;2022-08-01T17:28:34;0.88;;;0.88;;
53313;SDS011;39202;51.468;7.146;2022-08-01T17:33:37;0.80;;;0.80;;
53313;SDS011;39202;51.468;7.146;2022-08-01T17:38:40;0.90;;;0.90;;
53313;SDS011;39202;51.468;7.146;2022-08-01T17:43:42;0.82;;;0.82;;
53313;SDS011;39202;51.468;7.146;2022-08-01T17:48:45;0.73;;;0.73;;
53313;SDS011;39202;51.468;7.146;2022-08-01T17:53:46;0.75;;;0.75;;
53313;SDS011;39202;51.468;7.146;2022-08-01T17:58:48;0.90;;;0.90;;
53313;SDS011;39202;51.468;7.146;2022-08-01T18:03:51;1.42;;;1.00;;
53313;SDS011;39202;51.468;7.146;2022-08-01T18:08:54;0.90;;;0.90;;
53313;SDS011;39202;51.468;7.146;2022-08-01T18:13:55;1.25;;;0.98;;
53313;SDS011;39202;51.468;7.146;2022-08-01T18:18:58;0.80;;;0.80;;
53313;SDS011;39202;51.468;7.146;2022-08-01T18:24:00;0.82;;;0.82;;
53313;SDS011;39202;51.468;7.146;2022-08-01T18:29:02;0.90;;;0.90;;
53313;SDS011;39202;51.468;7.146;2022-08-01T18:34:07;1.00;;;1.00;;
53313;SDS011;39202;51.468;7.146;2022-08-01T18:39:09;0.70;;;0.70;;
53313;SDS011;39202;51.468;7.146;2022-08-01T18:44:11;0.90;;;0.90;;
53313;SDS011;39202;51.468;7.146;2022-08-01T18:49:15;0.70;;;0.70;;
53313;SDS011;39202;51.468;7.146;2022-08-01T18:54:19;0.98;;;0.70;;
53313;SDS011;39202;51.468;7.146;2022-08-01T18:59:21;0.90;;;0.90;;
53313;SDS011;39202;51.468;7.146;2022-08-01T19:04:24;0.90;;;0.90;;
53313;SDS011;39202;51.468;7.146;2022-08-01T19:09:26;0.90;;;0.90;;
53313;SDS011;39202;51.468;7.146;2022-08-01T19:14:28;0.95;;;0.95;;
53313;SDS011;39202;51.468;7.146;2022-08-01T19:19:31;1.00;;;0.85;;
53313;SDS011;39202;51.468;7.146;2022-08-01T19:24:35;1.00;;;1.00;;
53313;SDS011;39202;51.468;7.146;2022-08-01T19:29:37;0.90;;;0.90;;
53313;SDS011;39202;51.468;7.146;2022-08-01T19:34:45;0.80;;;0.80;;
53313;SDS011;39202;51.468;7.146;2022-08-01T19:39:49;0.85;;;0.85;;
53313;SDS011;39202;51.468;7.146;2022-08-01T19:44:52;0.98;;;0.98;;
53313;SDS011;39202;51.468;7.146;2022-08-01T19:49:55;0.95;;;0.95;;
53313;SDS011;39202;51.468;7.146;2022-08-01T19:54:57;0.80;;;0.80;;
53313;SDS011;39202;51.468;7.146;2022-08-01T20:00:01;0.90;;;0.90;;
53313;SDS011;39202;51.468;7.146;2022-08-01T20:05:05;0.90;;;0.90;;
53313;SDS011;39202;51.468;7.146;2022-08-01T20:10:08;0.80;;;0.80;;
53313;SDS011;39202;51.468;7.146;2022-08-01T20:15:11;0.80;;;0.70;;
53313;SDS011;39202;51.468;7.146;2022-08-01T20:20:14;1.20;;;1.10;;
53313;SDS011;39202;51.468;7.146;2022-08-01T20:25:16;0.90;;;0.90;;
53313;SDS011;39202;51.468;7.146;2022-08-01T20:30:20;0.80;;;0.80;;
53313;SDS011;39202;51.468;7.146;2022-08-01T20:35:25;0.90;;;0.90;;
53313;SDS011;39202;51.468;7.146;2022-08-01T20:40:28;0.77;;;0.77;;
53313;SDS011;39202;51.468;7.146;2022-08-01T20:45:30;0.80;;;0.80;;
53313;SDS011;39202;51.468;7.146;2022-08-01T20:50:35;0.80;;;0.80;;
53313;SDS011;39202;51.468;7.146;2022-08-01T20:55:57;0.90;;;0.90;;
53313;SDS011;39202;51.468;7.146;2022-08-01T21:01:02;0.80;;;0.80;;
53313;SDS011;39202;51.468;7.146;2022-08-01T21:06:07;0.80;;;0.80;;
53313;SDS011;39202;51.468;7.146;2022-08-01T21:11:12;0.75;;;0.75;;
53313;SDS011;39202;51.468;7.146;2022-08-01T21:16:20;0.80;;;0.80;;
53313;SDS011;39202;51.468;7.146;2022-08-01T21:21:27;1.00;;;1.00;;
53313;SDS011;39202;51.468;7.146;2022-08-01T21:26:30;0.80;;;0.80;;
53313;SDS011;39202;51.468;7.146;2022-08-01T21:31:34;0.80;;;0.80;;
53313;SDS011;39202;51.468;7.146;2022-08-01T21:36:38;1.00;;;1.00;;
53313;SDS011;39202;51.468;7.146;2022-08-01T21:41:44;1.30;;;0.90;;
53313;SDS011;39202;51.468;7.146;2022-08-01T21:46:45;0.90;;;0.90;;
53313;SDS011;39202;51.468;7.146;2022-08-01T21:51:50;0.90;;;0.90;;
53313;SDS011;39202;51.468;7.146;2022-08-01T21:56:58;1.02;;;1.00;;
53313;SDS011;39202;51.468;7.146;2022-08-01T22:02:06;0.90;;;0.90;;
53313;SDS011;39202;51.468;7.146;2022-08-01T22:07:13;0.90;;;0.90;;
53313;SDS011;39202;51.468;7.146;2022-08-01T22:12:18;0.90;;;0.90;;
53313;SDS011;39202;51.468;7.146;2022-08-01T22:17:20;0.90;;;0.90;;
53313;SDS011;39202;51.468;7.146;2022-08-01T22:22:25;0.93;;;0.93;;
53313;SDS011;39202;51.468;7.146;2022-08-01T22:27:28;0.90;;;0.90;;
53313;SDS011;39202;51.468;7.146;2022-08-01T22:32:32;0.80;;;0.80;;
53313;SDS011;39202;51.468;7.146;2022-08-01T22:37:37;1.00;;;1.00;;
53313;SDS011;39202;51.468;7.146;2022-08-01T22:42:40;1.17;;;0.95;;
53313;SDS011;39202;51.468;7.146;2022-08-01T22:47:48;0.90;;;0.90;;
53313;SDS011;39202;51.468;7.146;2022-08-01T22:53:01;0.98;;;0.95;;
53313;SDS011;39202;51.468;7.146;2022-08-01T22:58:11;1.10;;;0.95;;
53313;SDS011;39202;51.468;7.146;2022-08-01T23:03:18;0.90;;;0.90;;
53313;SDS011;39202;51.468;7.146;2022-08-01T23:08:25;0.95;;;0.82;;
53313;SDS011;39202;51.468;7.146;2022-08-01T23:13:28;0.90;;;0.90;;
53313;SDS011;39202;51.468;7.146;2022-08-01T23:18:30;1.10;;;1.10;;
53313;SDS011;39202;51.468;7.146;2022-08-01T23:23:34;0.90;;;0.90;;
53313;SDS011;39202;51.468;7.146;2022-08-01T23:28:56;0.95;;;0.95;;
53313;SDS011;39202;51.468;7.146;2022-08-01T23:40:01;0.80;;;0.80;;
53313;SDS011;39202;51.468;7.146;2022-08-01T23:50:52;1.05;;;1.00;;
53313;SDS011;39202;51.468;7.146;2022-08-01T23:56:17;0.82;;;0.82;;
